sensor_id;sensor_type;location;lat;lon;timestamp;temperature;humidity
29577;DHT22;16509;53.862;10.672;2023-09-08T00:02:01;17.70;99.90
29577;DHT22;16509;53.862;10.672;2023-09-08T00:04:27;18.00;99.90
29577;DHT22;16509;53.862;10.672;2023-09-08T00:06:52;18.80;99.90
29577;DHT22;16509;53.862;10.672;2023-09-08T00:09:18;18.40;99.90
29577;DHT22;16509;53.862;10.672;2023-09-08T00:11:43;17.90;99.90
29577;DHT22;16509;53.862;10.672;2023-09-08T00:14:09;19.90;99.90
29577;DHT22;16509;53.862;10.672;2023-09-08T00:16:34;18.10;99.90
29577;DHT22;16509;53.862;10.672;2023-09-08T00:19:00;17.70;99.90
29577;DHT22;16509;53.862;10.672;2023-09-08T00:21:26;19.40;99.90
29577;DHT22;16509;53.862;10.672;2023-09-08T00:23:52;17.60;99.90
29577;DHT22;16509;53.862;10.672;2023-09-08T00:26:18;17.60;99.90
29577;DHT22;16509;53.862;10.672;2023-09-08T00:28:44;17.60;99.90
29577;DHT22;16509;53.862;10.672;2023-09-08T00:31:09;17.50;99.90
29577;DHT22;16509;53.862;10.672;2023-09-08T00:33:35;17.60;99.90
29577;DHT22;16509;53.862;10.672;2023-09-08T00:36:00;17.50;99.90
29577;DHT22;16509;53.862;10.672;2023-09-08T00:38:26;18.50;99.90
29577;DHT22;16509;53.862;10.672;2023-09-08T00:40:52;17.50;99.90
29577;DHT22;16509;53.862;10.672;2023-09-08T00:43:17;17.60;99.90
29577;DHT22;16509;53.862;10.672;2023-09-08T00:45:44;17.70;99.90
29577;DHT22;16509;53.862;10.672;2023-09-08T00:48:10;17.30;99.90
29577;DHT22;16509;53.862;10.672;2023-09-08T00:50:36;17.40;99.90
29577;DHT22;16509;53.862;10.672;2023-09-08T00:53:04;18.10;99.90
29577;DHT22;16509;53.862;10.672;2023-09-08T00:55:30;17.30;99.90
29577;DHT22;16509;53.862;10.672;2023-09-08T00:57:57;17.30;99.90
29577;DHT22;16509;53.862;10.672;2023-09-08T01:00:26;17.20;99.90
29577;DHT22;16509;53.862;10.672;2023-09-08T01:02:52;17.20;99.90
29577;DHT22;16509;53.862;10.672;2023-09-08T01:05:18;17.20;99.90
29577;DHT22;16509;53.862;10.672;2023-09-08T01:07:44;17.80;99.90
29577;DHT22;16509;53.862;10.672;2023-09-08T01:10:11;17.80;99.90
29577;DHT22;16509;53.862;10.672;2023-09-08T01:12:38;17.10;99.90
29577;DHT22;16509;53.862;10.672;2023-09-08T01:15:04;17.10;99.90
29577;DHT22;16509;53.862;10.672;2023-09-08T01:17:30;17.10;99.90
29577;DHT22;16509;53.862;10.672;2023-09-08T01:20:01;17.00;99.90
29577;DHT22;16509;53.862;10.672;2023-09-08T01:25:21;17.00;99.90
29577;DHT22;16509;53.862;10.672;2023-09-08T01:27:48;16.90;99.90
29577;DHT22;16509;53.862;10.672;2023-09-08T01:30:15;17.00;99.90
29577;DHT22;16509;53.862;10.672;2023-09-08T01:32:42;16.90;99.90
29577;DHT22;16509;53.862;10.672;2023-09-08T01:35:09;16.90;99.90
29577;DHT22;16509;53.862;10.672;2023-09-08T01:37:35;16.90;99.90
29577;DHT22;16509;53.862;10.672;2023-09-08T01:40:00;16.90;99.90
29577;DHT22;16509;53.862;10.672;2023-09-08T01:42:26;16.90;99.90
29577;DHT22;16509;53.862;10.672;2023-09-08T01:44:51;16.90;99.90
29577;DHT22;16509;53.862;10.672;2023-09-08T01:47:17;16.90;99.90
29577;DHT22;16509;53.862;10.672;2023-09-08T01:49:42;16.90;99.90
29577;DHT22;16509;53.862;10.672;2023-09-08T01:52:08;18.20;99.90
29577;DHT22;16509;53.862;10.672;2023-09-08T01:54:33;16.90;99.90
29577;DHT22;16509;53.862;10.672;2023-09-08T01:56:59;16.90;99.90
29577;DHT22;16509;53.862;10.672;2023-09-08T01:59:24;16.90;99.90
29577;DHT22;16509;53.862;10.672;2023-09-08T02:01:50;16.80;99.90
29577;DHT22;16509;53.862;10.672;2023-09-08T02:04:15;16.90;99.90
29577;DHT22;16509;53.862;10.672;2023-09-08T02:06:41;16.80;99.90
29577;DHT22;16509;53.862;10.672;2023-09-08T02:09:08;16.80;99.90
29577;DHT22;16509;53.862;10.672;2023-09-08T02:11:36;15.80;99.90
29577;DHT22;16509;53.862;10.672;2023-09-08T02:14:02;16.70;99.90
29577;DHT22;16509;53.862;10.672;2023-09-08T02:16:27;17.20;99.90
29577;DHT22;16509;53.862;10.672;2023-09-08T02:18:54;16.60;99.90
29577;DHT22;16509;53.862;10.672;2023-09-08T02:21:19;16.40;99.90
29577;DHT22;16509;53.862;10.672;2023-09-08T02:23:45;16.50;99.90
29577;DHT22;16509;53.862;10.672;2023-09-08T02:26:10;16.50;99.90
29577;DHT22;16509;53.862;10.672;2023-09-08T02:28:36;18.10;99.90
29577;DHT22;16509;53.862;10.672;2023-09-08T02:31:01;16.40;99.90
29577;DHT22;16509;53.862;10.672;2023-09-08T02:33:27;16.40;99.90
29577;DHT22;16509;53.862;10.672;2023-09-08T02:35:54;16.30;99.90
29577;DHT22;16509;53.862;10.672;2023-09-08T02:38:19;16.30;99.90
29577;DHT22;16509;53.862;10.672;2023-09-08T02:40:45;16.30;99.90
29577;DHT22;16509;53.862;10.672;2023-09-08T02:43:10;17.30;99.90
29577;DHT22;16509;53.862;10.672;2023-09-08T02:45:36;16.30;99.90
29577;DHT22;16509;53.862;10.672;2023-09-08T02:48:01;16.30;99.90
29577;DHT22;16509;53.862;10.672;2023-09-08T02:50:27;16.30;99.90
29577;DHT22;16509;53.862;10.672;2023-09-08T02:52:52;16.30;99.90
29577;DHT22;16509;53.862;10.672;2023-09-08T02:55:18;16.30;99.90
29577;DHT22;16509;53.862;10.672;2023-09-08T02:57:44;17.90;99.90
29577;DHT22;16509;53.862;10.672;2023-09-08T03:00:10;17.00;99.90
29577;DHT22;16509;53.862;10.672;2023-09-08T03:02:36;16.00;99.90
29577;DHT22;16509;53.862;10.672;2023-09-08T03:05:01;16.90;99.90
29577;DHT22;16509;53.862;10.672;2023-09-08T03:07:27;16.10;99.90
29577;DHT22;16509;53.862;10.672;2023-09-08T03:09:53;17.80;99.90
29577;DHT22;16509;53.862;10.672;2023-09-08T03:12:19;17.70;99.90
29577;DHT22;16509;53.862;10.672;2023-09-08T03:14:44;18.40;99.90
29577;DHT22;16509;53.862;10.672;2023-09-08T03:17:11;17.30;99.90
29577;DHT22;16509;53.862;10.672;2023-09-08T03:19:38;16.80;99.90
29577;DHT22;16509;53.862;10.672;2023-09-08T03:22:03;18.20;99.90
29577;DHT22;16509;53.862;10.672;2023-09-08T03:24:29;17.40;99.90
29577;DHT22;16509;53.862;10.672;2023-09-08T03:26:55;19.00;99.90
29577;DHT22;16509;53.862;10.672;2023-09-08T03:29:23;16.00;99.90
29577;DHT22;16509;53.862;10.672;2023-09-08T03:31:49;16.00;99.90
29577;DHT22;16509;53.862;10.672;2023-09-08T03:34:15;18.10;99.90
29577;DHT22;16509;53.862;10.672;2023-09-08T03:36:40;15.90;99.90
29577;DHT22;16509;53.862;10.672;2023-09-08T03:39:06;16.50;99.90
29577;DHT22;16509;53.862;10.672;2023-09-08T03:41:32;17.80;99.90
29577;DHT22;16509;53.862;10.672;2023-09-08T03:43:57;16.20;99.90
29577;DHT22;16509;53.862;10.672;2023-09-08T03:46:23;17.80;99.90
29577;DHT22;16509;53.862;10.672;2023-09-08T03:48:50;18.20;99.90
29577;DHT22;16509;53.862;10.672;2023-09-08T03:51:15;17.00;99.90
29577;DHT22;16509;53.862;10.672;2023-09-08T03:53:41;16.70;99.90
29577;DHT22;16509;53.862;10.672;2023-09-08T03:56:06;16.50;99.90
29577;DHT22;16509;53.862;10.672;2023-09-08T03:58:32;16.30;99.90
29577;DHT22;16509;53.862;10.672;2023-09-08T04:00:58;18.10;99.90
29577;DHT22;16509;53.862;10.672;2023-09-08T04:03:23;18.00;99.90
29577;DHT22;16509;53.862;10.672;2023-09-08T04:05:49;14.60;99.90
29577;DHT22;16509;53.862;10.672;2023-09-08T04:08:14;16.90;99.90
29577;DHT22;16509;53.862;10.672;2023-09-08T04:10:40;17.40;99.90
29577;DHT22;16509;53.862;10.672;2023-09-08T04:13:05;17.70;99.90
29577;DHT22;16509;53.862;10.672;2023-09-08T04:15:31;16.30;99.90
29577;DHT22;16509;53.862;10.672;2023-09-08T04:17:57;16.90;99.90
29577;DHT22;16509;53.862;10.672;2023-09-08T04:20:22;15.80;99.90
29577;DHT22;16509;53.862;10.672;2023-09-08T04:22:48;17.50;99.90
29577;DHT22;16509;53.862;10.672;2023-09-08T04:25:14;17.00;99.90
29577;DHT22;16509;53.862;10.672;2023-09-08T04:27:42;16.40;99.90
29577;DHT22;16509;53.862;10.672;2023-09-08T04:30:08;15.90;99.90
29577;DHT22;16509;53.862;10.672;2023-09-08T04:32:34;15.50;99.90
29577;DHT22;16509;53.862;10.672;2023-09-08T04:34:59;16.70;99.90
29577;DHT22;16509;53.862;10.672;2023-09-08T04:37:25;17.40;99.90
29577;DHT22;16509;53.862;10.672;2023-09-08T04:39:51;16.80;99.90
29577;DHT22;16509;53.862;10.672;2023-09-08T04:42:16;16.90;99.90
29577;DHT22;16509;53.862;10.672;2023-09-08T04:44:42;17.00;99.90
29577;DHT22;16509;53.862;10.672;2023-09-08T04:47:08;15.80;99.90
29577;DHT22;16509;53.862;10.672;2023-09-08T04:49:33;16.90;99.90
29577;DHT22;16509;53.862;10.672;2023-09-08T04:51:59;16.20;99.90
29577;DHT22;16509;53.862;10.672;2023-09-08T04:54:24;18.20;99.90
29577;DHT22;16509;53.862;10.672;2023-09-08T04:56:53;16.80;99.90
29577;DHT22;16509;53.862;10.672;2023-09-08T04:59:19;18.40;99.90
29577;DHT22;16509;53.862;10.672;2023-09-08T05:01:44;17.30;99.90
29577;DHT22;16509;53.862;10.672;2023-09-08T05:04:10;18.40;99.90
29577;DHT22;16509;53.862;10.672;2023-09-08T05:06:36;18.10;99.90
29577;DHT22;16509;53.862;10.672;2023-09-08T05:09:02;17.20;99.90
29577;DHT22;16509;53.862;10.672;2023-09-08T05:11:28;15.60;99.90
29577;DHT22;16509;53.862;10.672;2023-09-08T05:13:54;16.90;99.90
29577;DHT22;16509;53.862;10.672;2023-09-08T05:16:19;17.90;99.90
29577;DHT22;16509;53.862;10.672;2023-09-08T05:18:51;16.20;99.90
29577;DHT22;16509;53.862;10.672;2023-09-08T05:21:17;17.80;99.90
29577;DHT22;16509;53.862;10.672;2023-09-08T05:23:42;17.10;99.90
29577;DHT22;16509;53.862;10.672;2023-09-08T05:26:08;18.10;99.90
29577;DHT22;16509;53.862;10.672;2023-09-08T05:28:34;17.90;99.90
29577;DHT22;16509;53.862;10.672;2023-09-08T05:30:59;16.70;99.90
29577;DHT22;16509;53.862;10.672;2023-09-08T05:33:25;15.60;99.90
29577;DHT22;16509;53.862;10.672;2023-09-08T05:35:50;15.60;99.90
29577;DHT22;16509;53.862;10.672;2023-09-08T05:38:16;15.70;99.90
29577;DHT22;16509;53.862;10.672;2023-09-08T05:40:41;15.70;99.90
29577;DHT22;16509;53.862;10.672;2023-09-08T05:43:07;15.80;99.90
29577;DHT22;16509;53.862;10.672;2023-09-08T05:45:32;15.80;99.90
29577;DHT22;16509;53.862;10.672;2023-09-08T05:47:58;15.90;99.90
29577;DHT22;16509;53.862;10.672;2023-09-08T05:50:23;15.90;99.90
29577;DHT22;16509;53.862;10.672;2023-09-08T05:52:50;16.00;99.90
29577;DHT22;16509;53.862;10.672;2023-09-08T05:55:16;16.10;99.90
29577;DHT22;16509;53.862;10.672;2023-09-08T05:57:41;16.10;99.90
29577;DHT22;16509;53.862;10.672;2023-09-08T06:00:07;16.20;99.90
29577;DHT22;16509;53.862;10.672;2023-09-08T06:02:33;16.20;99.90
29577;DHT22;16509;53.862;10.672;2023-09-08T06:04:58;16.20;99.90
29577;DHT22;16509;53.862;10.672;2023-09-08T06:07:24;16.30;99.90
29577;DHT22;16509;53.862;10.672;2023-09-08T06:09:49;16.40;99.90
29577;DHT22;16509;53.862;10.672;2023-09-08T06:12:15;16.50;99.90
29577;DHT22;16509;53.862;10.672;2023-09-08T06:14:41;16.50;99.90
29577;DHT22;16509;53.862;10.672;2023-09-08T06:17:06;19.00;99.90
29577;DHT22;16509;53.862;10.672;2023-09-08T06:19:31;16.60;99.90
29577;DHT22;16509;53.862;10.672;2023-09-08T06:21:57;16.70;99.90
29577;DHT22;16509;53.862;10.672;2023-09-08T06:24:23;16.60;99.90
29577;DHT22;16509;53.862;10.672;2023-09-08T06:26:49;19.10;99.90
29577;DHT22;16509;53.862;10.672;2023-09-08T06:29:15;17.30;99.90
29577;DHT22;16509;53.862;10.672;2023-09-08T06:31:40;16.80;99.90
29577;DHT22;16509;53.862;10.672;2023-09-08T06:34:06;16.80;99.90
29577;DHT22;16509;53.862;10.672;2023-09-08T06:36:31;17.40;99.90
29577;DHT22;16509;53.862;10.672;2023-09-08T06:38:57;17.00;99.90
29577;DHT22;16509;53.862;10.672;2023-09-08T06:41:22;17.10;99.90
29577;DHT22;16509;53.862;10.672;2023-09-08T06:43:49;17.10;99.90
29577;DHT22;16509;53.862;10.672;2023-09-08T06:46:14;17.30;99.90
29577;DHT22;16509;53.862;10.672;2023-09-08T06:48:40;18.40;99.90
29577;DHT22;16509;53.862;10.672;2023-09-08T06:51:05;17.70;99.90
29577;DHT22;16509;53.862;10.672;2023-09-08T06:53:31;17.90;99.90
29577;DHT22;16509;53.862;10.672;2023-09-08T06:55:57;17.70;99.90
29577;DHT22;16509;53.862;10.672;2023-09-08T06:58:23;17.80;99.90
29577;DHT22;16509;53.862;10.672;2023-09-08T07:00:49;17.80;99.90
29577;DHT22;16509;53.862;10.672;2023-09-08T07:03:16;18.40;99.90
29577;DHT22;16509;53.862;10.672;2023-09-08T07:05:41;18.20;99.90
29577;DHT22;16509;53.862;10.672;2023-09-08T07:08:07;18.20;99.90
29577;DHT22;16509;53.862;10.672;2023-09-08T07:10:34;18.70;99.90
29577;DHT22;16509;53.862;10.672;2023-09-08T07:12:59;18.30;99.90
29577;DHT22;16509;53.862;10.672;2023-09-08T07:15:28;18.50;99.90
29577;DHT22;16509;53.862;10.672;2023-09-08T07:18:01;18.60;99.90
29577;DHT22;16509;53.862;10.672;2023-09-08T07:20:29;18.60;99.90
29577;DHT22;16509;53.862;10.672;2023-09-08T07:23:07;19.10;99.90
29577;DHT22;16509;53.862;10.672;2023-09-08T07:25:32;18.70;99.90
29577;DHT22;16509;53.862;10.672;2023-09-08T07:27:58;20.10;99.90
29577;DHT22;16509;53.862;10.672;2023-09-08T07:30:26;21.40;99.90
29577;DHT22;16509;53.862;10.672;2023-09-08T07:32:52;19.30;99.90
29577;DHT22;16509;53.862;10.672;2023-09-08T07:35:17;19.50;99.90
29577;DHT22;16509;53.862;10.672;2023-09-08T07:37:44;19.70;99.90
29577;DHT22;16509;53.862;10.672;2023-09-08T07:40:10;20.40;99.90
29577;DHT22;16509;53.862;10.672;2023-09-08T07:42:36;20.30;99.90
29577;DHT22;16509;53.862;10.672;2023-09-08T07:45:04;20.60;99.90
29577;DHT22;16509;53.862;10.672;2023-09-08T07:47:40;20.50;99.90
29577;DHT22;16509;53.862;10.672;2023-09-08T07:50:23;21.20;99.90
29577;DHT22;16509;53.862;10.672;2023-09-08T07:52:50;21.10;99.90
29577;DHT22;16509;53.862;10.672;2023-09-08T07:55:16;21.30;99.90
29577;DHT22;16509;53.862;10.672;2023-09-08T07:57:47;21.10;99.90
29577;DHT22;16509;53.862;10.672;2023-09-08T08:00:13;21.00;99.90
29577;DHT22;16509;53.862;10.672;2023-09-08T08:02:42;21.20;99.90
29577;DHT22;16509;53.862;10.672;2023-09-08T08:05:09;22.60;99.90
29577;DHT22;16509;53.862;10.672;2023-09-08T08:07:35;21.40;99.90
29577;DHT22;16509;53.862;10.672;2023-09-08T08:10:00;21.90;99.90
29577;DHT22;16509;53.862;10.672;2023-09-08T08:12:26;23.20;99.90
29577;DHT22;16509;53.862;10.672;2023-09-08T08:14:52;21.60;99.90
29577;DHT22;16509;53.862;10.672;2023-09-08T08:17:17;22.00;99.90
29577;DHT22;16509;53.862;10.672;2023-09-08T08:19:45;22.30;99.90
29577;DHT22;16509;53.862;10.672;2023-09-08T08:22:10;22.20;99.90
29577;DHT22;16509;53.862;10.672;2023-09-08T08:24:36;22.30;99.90
29577;DHT22;16509;53.862;10.672;2023-09-08T08:27:01;22.40;99.90
29577;DHT22;16509;53.862;10.672;2023-09-08T08:29:28;22.50;99.90
29577;DHT22;16509;53.862;10.672;2023-09-08T08:31:54;22.50;99.90
29577;DHT22;16509;53.862;10.672;2023-09-08T08:34:19;22.60;99.90
29577;DHT22;16509;53.862;10.672;2023-09-08T08:36:45;22.90;99.90
29577;DHT22;16509;53.862;10.672;2023-09-08T08:39:10;23.60;99.90
29577;DHT22;16509;53.862;10.672;2023-09-08T08:41:36;25.10;99.90
29577;DHT22;16509;53.862;10.672;2023-09-08T08:44:06;23.00;99.90
29577;DHT22;16509;53.862;10.672;2023-09-08T08:46:33;23.20;99.90
29577;DHT22;16509;53.862;10.672;2023-09-08T08:49:02;23.30;99.90
29577;DHT22;16509;53.862;10.672;2023-09-08T08:51:28;24.70;99.90
29577;DHT22;16509;53.862;10.672;2023-09-08T08:53:55;24.40;99.90
29577;DHT22;16509;53.862;10.672;2023-09-08T08:56:22;23.60;99.90
29577;DHT22;16509;53.862;10.672;2023-09-08T08:58:47;23.60;99.90
29577;DHT22;16509;53.862;10.672;2023-09-08T09:01:16;24.10;99.90
29577;DHT22;16509;53.862;10.672;2023-09-08T09:03:42;23.90;99.90
29577;DHT22;16509;53.862;10.672;2023-09-08T09:06:10;23.90;99.90
29577;DHT22;16509;53.862;10.672;2023-09-08T09:08:37;24.10;99.90
29577;DHT22;16509;53.862;10.672;2023-09-08T09:11:03;24.10;99.90
29577;DHT22;16509;53.862;10.672;2023-09-08T09:13:28;24.30;99.90
29577;DHT22;16509;53.862;10.672;2023-09-08T09:16:01;24.40;99.90
29577;DHT22;16509;53.862;10.672;2023-09-08T09:26:26;24.90;99.90
29577;DHT22;16509;53.862;10.672;2023-09-08T09:29:08;24.90;99.90
29577;DHT22;16509;53.862;10.672;2023-09-08T09:35:48;25.50;99.90
29577;DHT22;16509;53.862;10.672;2023-09-08T09:38:15;25.60;99.90
29577;DHT22;16509;53.862;10.672;2023-09-08T09:40:44;25.50;99.90
29577;DHT22;16509;53.862;10.672;2023-09-08T09:43:10;27.10;99.90
29577;DHT22;16509;53.862;10.672;2023-09-08T09:45:39;25.60;99.90
29577;DHT22;16509;53.862;10.672;2023-09-08T09:48:09;25.90;99.90
29577;DHT22;16509;53.862;10.672;2023-09-08T09:50:39;26.70;99.90
29577;DHT22;16509;53.862;10.672;2023-09-08T09:53:13;26.10;99.90
29577;DHT22;16509;53.862;10.672;2023-09-08T09:55:41;26.10;99.90
29577;DHT22;16509;53.862;10.672;2023-09-08T09:58:08;26.20;99.90
29577;DHT22;16509;53.862;10.672;2023-09-08T10:00:35;26.30;99.90
29577;DHT22;16509;53.862;10.672;2023-09-08T10:03:03;26.50;99.90
29577;DHT22;16509;53.862;10.672;2023-09-08T10:05:29;26.70;99.90
29577;DHT22;16509;53.862;10.672;2023-09-08T10:07:56;26.80;99.90
29577;DHT22;16509;53.862;10.672;2023-09-08T10:10:22;26.80;99.90
29577;DHT22;16509;53.862;10.672;2023-09-08T10:13:01;26.90;99.90
29577;DHT22;16509;53.862;10.672;2023-09-08T10:15:28;27.00;99.90
29577;DHT22;16509;53.862;10.672;2023-09-08T10:17:56;27.30;99.90
29577;DHT22;16509;53.862;10.672;2023-09-08T10:20:27;27.20;99.90
29577;DHT22;16509;53.862;10.672;2023-09-08T10:23:23;27.50;99.90
29577;DHT22;16509;53.862;10.672;2023-09-08T10:25:56;27.60;99.90
29577;DHT22;16509;53.862;10.672;2023-09-08T10:28:22;27.80;99.90
29577;DHT22;16509;53.862;10.672;2023-09-08T10:30:49;27.70;99.90
29577;DHT22;16509;53.862;10.672;2023-09-08T10:33:15;27.90;99.90
29577;DHT22;16509;53.862;10.672;2023-09-08T10:35:42;27.90;99.90
29577;DHT22;16509;53.862;10.672;2023-09-08T10:38:28;27.90;99.90
29577;DHT22;16509;53.862;10.672;2023-09-08T10:44:01;28.10;99.90
29577;DHT22;16509;53.862;10.672;2023-09-08T10:46:28;28.20;99.90
29577;DHT22;16509;53.862;10.672;2023-09-08T10:49:06;28.40;99.90
29577;DHT22;16509;53.862;10.672;2023-09-08T10:51:33;28.50;99.90
29577;DHT22;16509;53.862;10.672;2023-09-08T10:54:00;28.70;99.90
29577;DHT22;16509;53.862;10.672;2023-09-08T10:56:55;28.70;99.90
29577;DHT22;16509;53.862;10.672;2023-09-08T10:59:27;28.90;99.90
29577;DHT22;16509;53.862;10.672;2023-09-08T11:01:54;29.20;99.90
29577;DHT22;16509;53.862;10.672;2023-09-08T11:04:20;29.10;99.90
29577;DHT22;16509;53.862;10.672;2023-09-08T11:06:46;29.20;99.90
29577;DHT22;16509;53.862;10.672;2023-09-08T11:09:11;29.10;99.90
29577;DHT22;16509;53.862;10.672;2023-09-08T11:11:37;29.00;99.90
29577;DHT22;16509;53.862;10.672;2023-09-08T11:14:03;28.90;99.90
29577;DHT22;16509;53.862;10.672;2023-09-08T11:16:30;28.90;99.90
29577;DHT22;16509;53.862;10.672;2023-09-08T11:18:58;29.10;99.90
29577;DHT22;16509;53.862;10.672;2023-09-08T11:21:24;29.50;99.90
29577;DHT22;16509;53.862;10.672;2023-09-08T11:23:50;29.50;99.90
29577;DHT22;16509;53.862;10.672;2023-09-08T11:26:16;29.70;99.90
29577;DHT22;16509;53.862;10.672;2023-09-08T11:28:42;29.60;99.90
29577;DHT22;16509;53.862;10.672;2023-09-08T11:31:08;29.50;99.90
29577;DHT22;16509;53.862;10.672;2023-09-08T11:33:35;29.50;99.90
29577;DHT22;16509;53.862;10.672;2023-09-08T11:36:11;29.60;99.90
29577;DHT22;16509;53.862;10.672;2023-09-08T11:38:38;29.60;99.90
29577;DHT22;16509;53.862;10.672;2023-09-08T11:41:04;29.80;99.90
29577;DHT22;16509;53.862;10.672;2023-09-08T11:43:29;30.10;99.90
29577;DHT22;16509;53.862;10.672;2023-09-08T11:45:58;30.10;99.90
29577;DHT22;16509;53.862;10.672;2023-09-08T11:48:24;29.70;99.90
29577;DHT22;16509;53.862;10.672;2023-09-08T11:50:53;29.70;99.90
29577;DHT22;16509;53.862;10.672;2023-09-08T11:53:20;30.20;99.90
29577;DHT22;16509;53.862;10.672;2023-09-08T11:55:49;30.50;98.50
29577;DHT22;16509;53.862;10.672;2023-09-08T11:58:15;30.10;98.20
29577;DHT22;16509;53.862;10.672;2023-09-08T12:01:03;30.10;99.70
29577;DHT22;16509;53.862;10.672;2023-09-08T12:03:32;31.60;99.90
29577;DHT22;16509;53.862;10.672;2023-09-08T12:08:30;31.00;97.30
29577;DHT22;16509;53.862;10.672;2023-09-08T12:10:58;30.60;97.20
29577;DHT22;16509;53.862;10.672;2023-09-08T12:13:24;30.70;98.60
29577;DHT22;16509;53.862;10.672;2023-09-08T12:16:16;29.60;99.90
29577;DHT22;16509;53.862;10.672;2023-09-08T12:18:45;30.10;99.50
29577;DHT22;16509;53.862;10.672;2023-09-08T12:21:21;30.80;96.70
29577;DHT22;16509;53.862;10.672;2023-09-08T12:23:48;30.70;97.10
29577;DHT22;16509;53.862;10.672;2023-09-08T12:33:34;30.00;98.00
29577;DHT22;16509;53.862;10.672;2023-09-08T12:36:23;31.60;97.60
29577;DHT22;16509;53.862;10.672;2023-09-08T12:39:21;31.60;99.20
29577;DHT22;16509;53.862;10.672;2023-09-08T12:46:32;31.20;96.30
29577;DHT22;16509;53.862;10.672;2023-09-08T12:56:48;31.60;94.80
29577;DHT22;16509;53.862;10.672;2023-09-08T12:59:44;31.60;96.90
29577;DHT22;16509;53.862;10.672;2023-09-08T13:02:32;31.50;94.80
29577;DHT22;16509;53.862;10.672;2023-09-08T13:04:58;31.80;96.40
29577;DHT22;16509;53.862;10.672;2023-09-08T13:09:51;31.40;95.50
29577;DHT22;16509;53.862;10.672;2023-09-08T13:17:13;30.20;94.20
29577;DHT22;16509;53.862;10.672;2023-09-08T13:19:42;32.30;95.60
29577;DHT22;16509;53.862;10.672;2023-09-08T13:22:08;32.30;93.50
29577;DHT22;16509;53.862;10.672;2023-09-08T13:24:34;31.20;92.60
29577;DHT22;16509;53.862;10.672;2023-09-08T13:27:00;31.20;94.80
29577;DHT22;16509;53.862;10.672;2023-09-08T13:29:26;31.40;94.00
29577;DHT22;16509;53.862;10.672;2023-09-08T13:31:52;31.20;93.10
29577;DHT22;16509;53.862;10.672;2023-09-08T13:34:18;30.80;93.80
29577;DHT22;16509;53.862;10.672;2023-09-08T13:36:43;31.10;93.90
29577;DHT22;16509;53.862;10.672;2023-09-08T13:39:09;31.40;93.30
29577;DHT22;16509;53.862;10.672;2023-09-08T13:41:54;31.00;93.30
29577;DHT22;16509;53.862;10.672;2023-09-08T13:44:22;31.10;94.00
29577;DHT22;16509;53.862;10.672;2023-09-08T13:46:52;31.40;93.20
29577;DHT22;16509;53.862;10.672;2023-09-08T13:49:19;31.20;93.60
29577;DHT22;16509;53.862;10.672;2023-09-08T13:51:44;30.90;93.30
29577;DHT22;16509;53.862;10.672;2023-09-08T13:54:11;30.50;93.40
29577;DHT22;16509;53.862;10.672;2023-09-08T13:56:42;30.20;94.30
29577;DHT22;16509;53.862;10.672;2023-09-08T13:59:11;29.80;95.70
29577;DHT22;16509;53.862;10.672;2023-09-08T14:01:52;29.60;95.10
29577;DHT22;16509;53.862;10.672;2023-09-08T14:04:19;29.30;95.20
29577;DHT22;16509;53.862;10.672;2023-09-08T14:06:45;29.20;94.60
29577;DHT22;16509;53.862;10.672;2023-09-08T14:09:33;29.10;95.00
29577;DHT22;16509;53.862;10.672;2023-09-08T14:11:59;29.00;95.50
29577;DHT22;16509;53.862;10.672;2023-09-08T14:14:25;28.90;95.70
29577;DHT22;16509;53.862;10.672;2023-09-08T14:16:50;28.90;94.90
29577;DHT22;16509;53.862;10.672;2023-09-08T14:19:16;28.90;94.90
29577;DHT22;16509;53.862;10.672;2023-09-08T14:21:41;28.80;95.30
29577;DHT22;16509;53.862;10.672;2023-09-08T14:24:07;30.40;96.00
29577;DHT22;16509;53.862;10.672;2023-09-08T14:26:33;28.70;96.00
29577;DHT22;16509;53.862;10.672;2023-09-08T14:29:03;28.60;96.20
29577;DHT22;16509;53.862;10.672;2023-09-08T14:31:29;28.60;96.40
29577;DHT22;16509;53.862;10.672;2023-09-08T14:33:55;28.60;96.40
29577;DHT22;16509;53.862;10.672;2023-09-08T14:36:21;28.60;96.00
29577;DHT22;16509;53.862;10.672;2023-09-08T14:38:47;28.50;96.60
29577;DHT22;16509;53.862;10.672;2023-09-08T14:41:13;28.70;94.90
29577;DHT22;16509;53.862;10.672;2023-09-08T14:43:40;28.50;94.00
29577;DHT22;16509;53.862;10.672;2023-09-08T14:46:05;28.60;94.30
29577;DHT22;16509;53.862;10.672;2023-09-08T14:48:34;28.60;94.60
29577;DHT22;16509;53.862;10.672;2023-09-08T14:51:01;28.50;93.60
29577;DHT22;16509;53.862;10.672;2023-09-08T14:53:29;28.50;93.60
29577;DHT22;16509;53.862;10.672;2023-09-08T14:55:57;28.50;94.40
29577;DHT22;16509;53.862;10.672;2023-09-08T14:58:23;28.50;93.90
29577;DHT22;16509;53.862;10.672;2023-09-08T15:00:50;28.40;94.70
29577;DHT22;16509;53.862;10.672;2023-09-08T15:03:16;28.50;94.10
29577;DHT22;16509;53.862;10.672;2023-09-08T15:05:42;28.40;94.40
29577;DHT22;16509;53.862;10.672;2023-09-08T15:08:08;28.40;94.80
29577;DHT22;16509;53.862;10.672;2023-09-08T15:10:34;28.40;94.30
29577;DHT22;16509;53.862;10.672;2023-09-08T15:13:02;28.40;93.40
29577;DHT22;16509;53.862;10.672;2023-09-08T15:15:28;28.40;93.50
29577;DHT22;16509;53.862;10.672;2023-09-08T15:17:54;28.30;93.80
29577;DHT22;16509;53.862;10.672;2023-09-08T15:20:23;28.30;94.20
29577;DHT22;16509;53.862;10.672;2023-09-08T15:22:49;28.30;94.30
29577;DHT22;16509;53.862;10.672;2023-09-08T15:25:15;28.30;94.30
29577;DHT22;16509;53.862;10.672;2023-09-08T15:27:41;28.30;94.20
29577;DHT22;16509;53.862;10.672;2023-09-08T15:30:07;28.20;94.90
29577;DHT22;16509;53.862;10.672;2023-09-08T15:32:33;28.20;94.70
29577;DHT22;16509;53.862;10.672;2023-09-08T15:34:58;28.10;95.00
29577;DHT22;16509;53.862;10.672;2023-09-08T15:37:24;28.20;94.90
29577;DHT22;16509;53.862;10.672;2023-09-08T15:39:49;28.20;95.40
29577;DHT22;16509;53.862;10.672;2023-09-08T15:42:15;28.10;95.70
29577;DHT22;16509;53.862;10.672;2023-09-08T15:44:40;28.10;95.60
29577;DHT22;16509;53.862;10.672;2023-09-08T15:47:06;28.10;95.50
29577;DHT22;16509;53.862;10.672;2023-09-08T15:49:31;28.10;95.30
29577;DHT22;16509;53.862;10.672;2023-09-08T15:51:57;28.20;95.30
29577;DHT22;16509;53.862;10.672;2023-09-08T15:54:25;28.20;95.30
29577;DHT22;16509;53.862;10.672;2023-09-08T15:56:51;28.30;95.60
29577;DHT22;16509;53.862;10.672;2023-09-08T15:59:16;28.30;95.70
29577;DHT22;16509;53.862;10.672;2023-09-08T16:01:42;28.20;95.50
29577;DHT22;16509;53.862;10.672;2023-09-08T16:04:08;28.10;96.00